sensor_id;sensor_type;location;lat;lon;timestamp;temperature;humidity
30999;DHT22;20549;50.042;8.968;2024-01-06T00:00:32;5.60;99.90
30999;DHT22;20549;50.042;8.968;2024-01-06T00:02:58;5.60;99.90
30999;DHT22;20549;50.042;8.968;2024-01-06T00:05:25;5.60;99.90
30999;DHT22;20549;50.042;8.968;2024-01-06T00:07:52;5.60;99.90
30999;DHT22;20549;50.042;8.968;2024-01-06T00:10:18;5.60;99.90
30999;DHT22;20549;50.042;8.968;2024-01-06T00:12:45;5.50;99.90
30999;DHT22;20549;50.042;8.968;2024-01-06T00:15:11;5.50;99.90
30999;DHT22;20549;50.042;8.968;2024-01-06T00:17:38;5.50;99.90
30999;DHT22;20549;50.042;8.968;2024-01-06T00:20:05;5.50;99.90
30999;DHT22;20549;50.042;8.968;2024-01-06T00:22:31;5.40;99.90
30999;DHT22;20549;50.042;8.968;2024-01-06T00:24:58;5.40;99.90
30999;DHT22;20549;50.042;8.968;2024-01-06T00:27:24;5.40;99.90
30999;DHT22;20549;50.042;8.968;2024-01-06T00:29:51;5.30;99.90
30999;DHT22;20549;50.042;8.968;2024-01-06T00:32:18;5.30;99.90
30999;DHT22;20549;50.042;8.968;2024-01-06T00:34:44;5.30;99.90
30999;DHT22;20549;50.042;8.968;2024-01-06T00:37:11;5.30;99.90
30999;DHT22;20549;50.042;8.968;2024-01-06T00:39:37;5.30;99.90
30999;DHT22;20549;50.042;8.968;2024-01-06T00:42:04;5.40;99.90
30999;DHT22;20549;50.042;8.968;2024-01-06T00:44:31;5.40;99.90
30999;DHT22;20549;50.042;8.968;2024-01-06T00:46:57;5.40;99.90
30999;DHT22;20549;50.042;8.968;2024-01-06T00:49:24;5.40;99.90
30999;DHT22;20549;50.042;8.968;2024-01-06T00:51:50;5.40;99.90
30999;DHT22;20549;50.042;8.968;2024-01-06T00:54:17;5.50;99.90
30999;DHT22;20549;50.042;8.968;2024-01-06T00:56:43;5.50;99.90
30999;DHT22;20549;50.042;8.968;2024-01-06T00:59:10;5.50;99.90
30999;DHT22;20549;50.042;8.968;2024-01-06T01:01:37;5.50;99.90
30999;DHT22;20549;50.042;8.968;2024-01-06T01:04:03;5.50;99.90
30999;DHT22;20549;50.042;8.968;2024-01-06T01:06:30;5.50;99.90
30999;DHT22;20549;50.042;8.968;2024-01-06T01:08:56;5.60;99.90
30999;DHT22;20549;50.042;8.968;2024-01-06T01:11:23;5.60;99.90
30999;DHT22;20549;50.042;8.968;2024-01-06T01:13:50;5.60;99.90
30999;DHT22;20549;50.042;8.968;2024-01-06T01:16:16;5.60;99.90
30999;DHT22;20549;50.042;8.968;2024-01-06T01:18:43;5.60;99.90
30999;DHT22;20549;50.042;8.968;2024-01-06T01:21:09;5.60;99.90
30999;DHT22;20549;50.042;8.968;2024-01-06T01:23:36;5.50;99.90
30999;DHT22;20549;50.042;8.968;2024-01-06T01:26:02;5.50;99.90
30999;DHT22;20549;50.042;8.968;2024-01-06T01:28:29;5.50;99.90
30999;DHT22;20549;50.042;8.968;2024-01-06T01:30:56;5.50;99.90
30999;DHT22;20549;50.042;8.968;2024-01-06T01:33:22;5.50;99.90
30999;DHT22;20549;50.042;8.968;2024-01-06T01:35:49;5.50;99.90
30999;DHT22;20549;50.042;8.968;2024-01-06T01:38:15;5.50;99.90
30999;DHT22;20549;50.042;8.968;2024-01-06T01:40:42;5.50;99.90
30999;DHT22;20549;50.042;8.968;2024-01-06T01:43:18;5.60;99.90
30999;DHT22;20549;50.042;8.968;2024-01-06T01:45:45;5.60;99.90
30999;DHT22;20549;50.042;8.968;2024-01-06T01:48:11;5.60;99.90
30999;DHT22;20549;50.042;8.968;2024-01-06T01:50:37;5.60;99.90
30999;DHT22;20549;50.042;8.968;2024-01-06T01:53:05;5.70;99.90
30999;DHT22;20549;50.042;8.968;2024-01-06T01:55:31;5.80;99.90
30999;DHT22;20549;50.042;8.968;2024-01-06T01:57:57;5.80;99.90
30999;DHT22;20549;50.042;8.968;2024-01-06T02:00:24;5.90;99.90
30999;DHT22;20549;50.042;8.968;2024-01-06T02:02:50;5.90;99.90
30999;DHT22;20549;50.042;8.968;2024-01-06T02:05:17;6.00;99.90
30999;DHT22;20549;50.042;8.968;2024-01-06T02:07:44;6.00;99.90
30999;DHT22;20549;50.042;8.968;2024-01-06T02:10:10;6.10;99.90
30999;DHT22;20549;50.042;8.968;2024-01-06T02:12:37;6.10;99.90
30999;DHT22;20549;50.042;8.968;2024-01-06T02:15:03;6.20;99.90
30999;DHT22;20549;50.042;8.968;2024-01-06T02:17:30;6.30;99.90
30999;DHT22;20549;50.042;8.968;2024-01-06T02:19:57;6.30;99.90
30999;DHT22;20549;50.042;8.968;2024-01-06T02:22:23;6.40;99.90
30999;DHT22;20549;50.042;8.968;2024-01-06T02:24:50;6.50;99.90
30999;DHT22;20549;50.042;8.968;2024-01-06T02:27:16;6.50;99.90
30999;DHT22;20549;50.042;8.968;2024-01-06T02:29:43;6.60;99.90
30999;DHT22;20549;50.042;8.968;2024-01-06T02:32:09;6.60;99.90
30999;DHT22;20549;50.042;8.968;2024-01-06T02:34:36;6.60;99.90
30999;DHT22;20549;50.042;8.968;2024-01-06T02:37:03;6.70;99.90
30999;DHT22;20549;50.042;8.968;2024-01-06T02:39:29;6.70;99.90
30999;DHT22;20549;50.042;8.968;2024-01-06T02:41:56;6.80;99.90
30999;DHT22;20549;50.042;8.968;2024-01-06T02:44:22;6.80;99.90
30999;DHT22;20549;50.042;8.968;2024-01-06T02:46:49;6.90;99.90
30999;DHT22;20549;50.042;8.968;2024-01-06T02:49:16;6.90;99.90
30999;DHT22;20549;50.042;8.968;2024-01-06T02:51:42;6.90;99.90
30999;DHT22;20549;50.042;8.968;2024-01-06T02:54:09;6.90;99.90
30999;DHT22;20549;50.042;8.968;2024-01-06T02:56:35;7.00;99.90
30999;DHT22;20549;50.042;8.968;2024-01-06T02:59:02;7.00;99.90
30999;DHT22;20549;50.042;8.968;2024-01-06T03:01:28;7.00;99.90
30999;DHT22;20549;50.042;8.968;2024-01-06T03:03:55;7.00;99.90
30999;DHT22;20549;50.042;8.968;2024-01-06T03:06:22;7.10;99.90
30999;DHT22;20549;50.042;8.968;2024-01-06T03:08:48;7.10;99.90
30999;DHT22;20549;50.042;8.968;2024-01-06T03:11:15;7.10;99.90
30999;DHT22;20549;50.042;8.968;2024-01-06T03:13:41;7.10;99.90
30999;DHT22;20549;50.042;8.968;2024-01-06T03:16:08;7.10;99.90
30999;DHT22;20549;50.042;8.968;2024-01-06T03:18:35;7.10;99.90
30999;DHT22;20549;50.042;8.968;2024-01-06T03:21:01;7.10;99.90
30999;DHT22;20549;50.042;8.968;2024-01-06T03:23:28;7.10;99.90
30999;DHT22;20549;50.042;8.968;2024-01-06T03:25:54;7.20;99.90
30999;DHT22;20549;50.042;8.968;2024-01-06T03:28:21;7.20;99.90
30999;DHT22;20549;50.042;8.968;2024-01-06T03:30:47;7.20;99.90
30999;DHT22;20549;50.042;8.968;2024-01-06T03:33:14;7.20;99.90
30999;DHT22;20549;50.042;8.968;2024-01-06T03:35:41;7.20;99.90
30999;DHT22;20549;50.042;8.968;2024-01-06T03:38:07;7.20;99.90
30999;DHT22;20549;50.042;8.968;2024-01-06T03:40:34;7.20;99.90
30999;DHT22;20549;50.042;8.968;2024-01-06T03:43:00;7.30;99.90
30999;DHT22;20549;50.042;8.968;2024-01-06T03:45:27;7.30;99.90
30999;DHT22;20549;50.042;8.968;2024-01-06T03:47:54;7.30;99.90
30999;DHT22;20549;50.042;8.968;2024-01-06T03:50:20;7.30;99.90
30999;DHT22;20549;50.042;8.968;2024-01-06T03:52:47;7.30;99.90
30999;DHT22;20549;50.042;8.968;2024-01-06T03:55:13;7.40;99.90
30999;DHT22;20549;50.042;8.968;2024-01-06T03:57:40;7.30;99.90
30999;DHT22;20549;50.042;8.968;2024-01-06T04:00:07;7.40;99.90
30999;DHT22;20549;50.042;8.968;2024-01-06T04:02:33;7.40;99.90
30999;DHT22;20549;50.042;8.968;2024-01-06T04:05:00;7.40;99.90
30999;DHT22;20549;50.042;8.968;2024-01-06T04:07:26;7.40;99.90
30999;DHT22;20549;50.042;8.968;2024-01-06T04:09:53;7.40;99.90
30999;DHT22;20549;50.042;8.968;2024-01-06T04:12:19;7.40;99.90
30999;DHT22;20549;50.042;8.968;2024-01-06T04:14:46;7.40;99.90
30999;DHT22;20549;50.042;8.968;2024-01-06T04:17:13;7.40;99.90
30999;DHT22;20549;50.042;8.968;2024-01-06T04:19:39;7.40;99.90
30999;DHT22;20549;50.042;8.968;2024-01-06T04:22:06;7.40;99.90
30999;DHT22;20549;50.042;8.968;2024-01-06T04:24:32;7.40;99.90
30999;DHT22;20549;50.042;8.968;2024-01-06T04:26:59;7.40;99.90
30999;DHT22;20549;50.042;8.968;2024-01-06T04:29:26;7.40;99.90
30999;DHT22;20549;50.042;8.968;2024-01-06T04:31:52;7.40;99.90
30999;DHT22;20549;50.042;8.968;2024-01-06T04:34:19;7.40;99.90
30999;DHT22;20549;50.042;8.968;2024-01-06T04:36:45;7.40;99.90
30999;DHT22;20549;50.042;8.968;2024-01-06T04:39:12;7.40;99.90
30999;DHT22;20549;50.042;8.968;2024-01-06T04:41:39;7.40;99.90
30999;DHT22;20549;50.042;8.968;2024-01-06T04:44:05;7.50;99.90
30999;DHT22;20549;50.042;8.968;2024-01-06T04:46:32;7.50;99.90
30999;DHT22;20549;50.042;8.968;2024-01-06T04:48:58;7.50;99.90
30999;DHT22;20549;50.042;8.968;2024-01-06T04:51:25;7.50;99.90
30999;DHT22;20549;50.042;8.968;2024-01-06T04:53:51;7.50;99.90
30999;DHT22;20549;50.042;8.968;2024-01-06T04:56:18;7.50;99.90
30999;DHT22;20549;50.042;8.968;2024-01-06T04:58:45;7.60;99.90
30999;DHT22;20549;50.042;8.968;2024-01-06T05:01:11;7.60;99.90
30999;DHT22;20549;50.042;8.968;2024-01-06T05:03:38;7.60;99.90
30999;DHT22;20549;50.042;8.968;2024-01-06T05:06:04;7.70;99.90
30999;DHT22;20549;50.042;8.968;2024-01-06T05:08:31;7.70;99.90
30999;DHT22;20549;50.042;8.968;2024-01-06T05:10:57;7.70;99.90
30999;DHT22;20549;50.042;8.968;2024-01-06T05:13:24;7.70;99.90
30999;DHT22;20549;50.042;8.968;2024-01-06T05:15:51;7.80;99.90
30999;DHT22;20549;50.042;8.968;2024-01-06T05:18:17;7.80;99.90
30999;DHT22;20549;50.042;8.968;2024-01-06T05:20:44;7.80;99.90
30999;DHT22;20549;50.042;8.968;2024-01-06T05:23:10;7.80;99.90
30999;DHT22;20549;50.042;8.968;2024-01-06T05:25:37;7.90;99.90
30999;DHT22;20549;50.042;8.968;2024-01-06T05:28:04;7.90;99.90
30999;DHT22;20549;50.042;8.968;2024-01-06T05:30:30;7.90;99.90
30999;DHT22;20549;50.042;8.968;2024-01-06T05:32:57;7.90;99.90
30999;DHT22;20549;50.042;8.968;2024-01-06T05:35:23;7.90;99.90
30999;DHT22;20549;50.042;8.968;2024-01-06T05:37:50;8.00;99.90
30999;DHT22;20549;50.042;8.968;2024-01-06T05:40:16;8.00;99.90
30999;DHT22;20549;50.042;8.968;2024-01-06T05:42:43;8.00;99.90
30999;DHT22;20549;50.042;8.968;2024-01-06T05:45:13;8.00;99.90
30999;DHT22;20549;50.042;8.968;2024-01-06T05:47:39;8.00;99.90
30999;DHT22;20549;50.042;8.968;2024-01-06T05:50:06;8.00;99.90
30999;DHT22;20549;50.042;8.968;2024-01-06T05:52:33;8.00;99.90
30999;DHT22;20549;50.042;8.968;2024-01-06T05:54:59;8.00;99.90
30999;DHT22;20549;50.042;8.968;2024-01-06T05:57:26;8.00;99.90
30999;DHT22;20549;50.042;8.968;2024-01-06T05:59:53;7.90;99.90
30999;DHT22;20549;50.042;8.968;2024-01-06T06:02:19;7.90;99.90
30999;DHT22;20549;50.042;8.968;2024-01-06T06:04:46;7.90;99.90
30999;DHT22;20549;50.042;8.968;2024-01-06T06:07:12;7.90;99.90
30999;DHT22;20549;50.042;8.968;2024-01-06T06:09:39;7.90;99.90
30999;DHT22;20549;50.042;8.968;2024-01-06T06:12:05;7.90;99.90
30999;DHT22;20549;50.042;8.968;2024-01-06T06:14:32;7.90;99.90
30999;DHT22;20549;50.042;8.968;2024-01-06T06:16:59;7.90;99.90
30999;DHT22;20549;50.042;8.968;2024-01-06T06:19:25;7.90;99.90
30999;DHT22;20549;50.042;8.968;2024-01-06T06:45:40;7.90;99.90
30999;DHT22;20549;50.042;8.968;2024-01-06T06:48:07;8.40;99.90
30999;DHT22;20549;50.042;8.968;2024-01-06T06:50:33;8.50;99.90
30999;DHT22;20549;50.042;8.968;2024-01-06T06:53:00;8.50;99.90
30999;DHT22;20549;50.042;8.968;2024-01-06T06:55:26;8.50;99.90
30999;DHT22;20549;50.042;8.968;2024-01-06T06:57:53;8.50;99.90
30999;DHT22;20549;50.042;8.968;2024-01-06T07:00:20;8.50;99.90
30999;DHT22;20549;50.042;8.968;2024-01-06T07:02:46;8.50;99.90
30999;DHT22;20549;50.042;8.968;2024-01-06T07:05:13;8.50;99.90
30999;DHT22;20549;50.042;8.968;2024-01-06T07:07:39;8.50;99.90
30999;DHT22;20549;50.042;8.968;2024-01-06T07:10:06;8.40;99.90
30999;DHT22;20549;50.042;8.968;2024-01-06T07:12:33;8.40;99.90
30999;DHT22;20549;50.042;8.968;2024-01-06T07:14:59;8.40;99.90
30999;DHT22;20549;50.042;8.968;2024-01-06T07:17:26;8.40;99.90
30999;DHT22;20549;50.042;8.968;2024-01-06T07:19:52;8.40;99.90
30999;DHT22;20549;50.042;8.968;2024-01-06T07:22:19;8.40;99.90
30999;DHT22;20549;50.042;8.968;2024-01-06T07:24:46;8.30;99.90
30999;DHT22;20549;50.042;8.968;2024-01-06T07:27:12;8.30;99.90
30999;DHT22;20549;50.042;8.968;2024-01-06T07:29:39;8.30;99.90
30999;DHT22;20549;50.042;8.968;2024-01-06T07:32:05;8.30;99.90
30999;DHT22;20549;50.042;8.968;2024-01-06T07:34:35;8.30;99.90
30999;DHT22;20549;50.042;8.968;2024-01-06T07:37:01;8.30;99.90
30999;DHT22;20549;50.042;8.968;2024-01-06T07:39:28;8.30;99.90
30999;DHT22;20549;50.042;8.968;2024-01-06T07:41:55;8.30;99.90
30999;DHT22;20549;50.042;8.968;2024-01-06T07:44:21;8.40;99.90
30999;DHT22;20549;50.042;8.968;2024-01-06T07:46:48;8.40;99.90
30999;DHT22;20549;50.042;8.968;2024-01-06T07:49:14;8.40;99.90
30999;DHT22;20549;50.042;8.968;2024-01-06T07:51:41;8.40;99.90
30999;DHT22;20549;50.042;8.968;2024-01-06T07:54:07;8.40;99.90
30999;DHT22;20549;50.042;8.968;2024-01-06T07:56:34;8.40;99.90
30999;DHT22;20549;50.042;8.968;2024-01-06T07:59:04;8.40;99.90
30999;DHT22;20549;50.042;8.968;2024-01-06T08:01:30;8.50;99.90
30999;DHT22;20549;50.042;8.968;2024-01-06T08:03:57;8.50;99.90
30999;DHT22;20549;50.042;8.968;2024-01-06T08:06:23;8.50;99.90
30999;DHT22;20549;50.042;8.968;2024-01-06T08:08:50;8.50;99.90
30999;DHT22;20549;50.042;8.968;2024-01-06T08:11:16;8.60;99.90
30999;DHT22;20549;50.042;8.968;2024-01-06T08:13:43;8.60;99.90
30999;DHT22;20549;50.042;8.968;2024-01-06T08:16:10;8.60;99.90
30999;DHT22;20549;50.042;8.968;2024-01-06T08:18:36;8.70;99.90
30999;DHT22;20549;50.042;8.968;2024-01-06T08:21:03;8.70;99.90
30999;DHT22;20549;50.042;8.968;2024-01-06T08:23:29;8.70;99.90
30999;DHT22;20549;50.042;8.968;2024-01-06T08:25:56;8.80;99.90
30999;DHT22;20549;50.042;8.968;2024-01-06T08:28:22;8.80;99.90
30999;DHT22;20549;50.042;8.968;2024-01-06T08:30:49;8.90;99.90
30999;DHT22;20549;50.042;8.968;2024-01-06T08:33:16;8.90;99.90
30999;DHT22;20549;50.042;8.968;2024-01-06T08:35:42;8.90;99.90
30999;DHT22;20549;50.042;8.968;2024-01-06T08:38:09;8.90;99.90
30999;DHT22;20549;50.042;8.968;2024-01-06T08:40:35;9.00;99.90
30999;DHT22;20549;50.042;8.968;2024-01-06T08:43:02;9.00;99.90
30999;DHT22;20549;50.042;8.968;2024-01-06T08:45:28;9.00;99.90
30999;DHT22;20549;50.042;8.968;2024-01-06T08:47:55;9.10;99.90
30999;DHT22;20549;50.042;8.968;2024-01-06T08:50:22;9.10;99.90
30999;DHT22;20549;50.042;8.968;2024-01-06T08:52:48;9.10;99.90
30999;DHT22;20549;50.042;8.968;2024-01-06T08:55:15;9.10;99.90
30999;DHT22;20549;50.042;8.968;2024-01-06T08:57:41;9.10;99.90
30999;DHT22;20549;50.042;8.968;2024-01-06T09:00:08;9.20;99.90
30999;DHT22;20549;50.042;8.968;2024-01-06T09:02:35;9.20;99.90
30999;DHT22;20549;50.042;8.968;2024-01-06T09:05:01;9.20;99.90
30999;DHT22;20549;50.042;8.968;2024-01-06T09:07:28;9.20;99.90
30999;DHT22;20549;50.042;8.968;2024-01-06T09:09:54;9.30;99.90
30999;DHT22;20549;50.042;8.968;2024-01-06T09:12:21;9.30;99.90
30999;DHT22;20549;50.042;8.968;2024-01-06T09:14:47;9.30;99.90
30999;DHT22;20549;50.042;8.968;2024-01-06T09:17:14;9.30;99.90
30999;DHT22;20549;50.042;8.968;2024-01-06T09:19:41;9.40;99.90
30999;DHT22;20549;50.042;8.968;2024-01-06T09:22:07;9.40;99.90
30999;DHT22;20549;50.042;8.968;2024-01-06T09:24:34;9.40;99.90
30999;DHT22;20549;50.042;8.968;2024-01-06T09:27:00;9.40;99.90
30999;DHT22;20549;50.042;8.968;2024-01-06T09:29:27;9.50;99.90
30999;DHT22;20549;50.042;8.968;2024-01-06T09:31:54;9.50;99.90
30999;DHT22;20549;50.042;8.968;2024-01-06T09:34:20;9.60;99.90
30999;DHT22;20549;50.042;8.968;2024-01-06T09:36:47;9.60;99.90
30999;DHT22;20549;50.042;8.968;2024-01-06T09:39:13;9.70;99.90
30999;DHT22;20549;50.042;8.968;2024-01-06T09:41:40;9.70;99.90
30999;DHT22;20549;50.042;8.968;2024-01-06T09:44:07;9.70;99.90
30999;DHT22;20549;50.042;8.968;2024-01-06T09:46:33;9.80;99.90
30999;DHT22;20549;50.042;8.968;2024-01-06T09:49:00;9.80;99.90
30999;DHT22;20549;50.042;8.968;2024-01-06T09:51:26;9.90;99.90
30999;DHT22;20549;50.042;8.968;2024-01-06T09:53:57;9.90;99.90
30999;DHT22;20549;50.042;8.968;2024-01-06T09:56:22;9.90;99.90
30999;DHT22;20549;50.042;8.968;2024-01-06T09:58:49;10.00;99.90
30999;DHT22;20549;50.042;8.968;2024-01-06T10:01:15;10.00;99.90
30999;DHT22;20549;50.042;8.968;2024-01-06T10:03:42;10.10;99.90
30999;DHT22;20549;50.042;8.968;2024-01-06T10:06:09;10.10;99.90
30999;DHT22;20549;50.042;8.968;2024-01-06T10:08:35;10.20;99.90
30999;DHT22;20549;50.042;8.968;2024-01-06T10:11:02;10.20;99.90
30999;DHT22;20549;50.042;8.968;2024-01-06T10:13:28;10.20;99.90
30999;DHT22;20549;50.042;8.968;2024-01-06T10:15:55;10.30;99.90
30999;DHT22;20549;50.042;8.968;2024-01-06T10:18:21;10.30;99.90
30999;DHT22;20549;50.042;8.968;2024-01-06T10:20:48;10.40;99.90
30999;DHT22;20549;50.042;8.968;2024-01-06T10:23:15;10.40;99.90
30999;DHT22;20549;50.042;8.968;2024-01-06T10:25:41;10.50;99.90
30999;DHT22;20549;50.042;8.968;2024-01-06T10:28:11;10.50;99.90
30999;DHT22;20549;50.042;8.968;2024-01-06T10:30:34;10.60;99.90
30999;DHT22;20549;50.042;8.968;2024-01-06T10:33:01;10.60;99.90
30999;DHT22;20549;50.042;8.968;2024-01-06T10:35:28;10.70;99.90
30999;DHT22;20549;50.042;8.968;2024-01-06T10:37:54;10.70;99.90
30999;DHT22;20549;50.042;8.968;2024-01-06T10:40:21;10.80;99.60
30999;DHT22;20549;50.042;8.968;2024-01-06T10:42:47;10.80;99.30
30999;DHT22;20549;50.042;8.968;2024-01-06T10:45:14;10.80;99.00
30999;DHT22;20549;50.042;8.968;2024-01-06T10:47:41;10.80;98.60
30999;DHT22;20549;50.042;8.968;2024-01-06T10:50:07;10.90;98.30
30999;DHT22;20549;50.042;8.968;2024-01-06T10:52:37;10.90;98.10
30999;DHT22;20549;50.042;8.968;2024-01-06T10:55:04;10.90;98.00
30999;DHT22;20549;50.042;8.968;2024-01-06T10:57:30;10.90;98.20
30999;DHT22;20549;50.042;8.968;2024-01-06T10:59:56;10.90;98.30
30999;DHT22;20549;50.042;8.968;2024-01-06T11:02:23;10.90;98.40
30999;DHT22;20549;50.042;8.968;2024-01-06T11:04:49;10.90;98.50
30999;DHT22;20549;50.042;8.968;2024-01-06T11:07:22;10.90;98.90
30999;DHT22;20549;50.042;8.968;2024-01-06T11:09:59;11.00;98.60
30999;DHT22;20549;50.042;8.968;2024-01-06T11:12:27;11.00;98.50
30999;DHT22;20549;50.042;8.968;2024-01-06T11:14:53;11.00;98.40
30999;DHT22;20549;50.042;8.968;2024-01-06T11:17:54;11.10;98.50
30999;DHT22;20549;50.042;8.968;2024-01-06T11:20:20;11.10;98.50
30999;DHT22;20549;50.042;8.968;2024-01-06T11:22:47;11.10;98.40
30999;DHT22;20549;50.042;8.968;2024-01-06T11:25:14;11.10;98.30
30999;DHT22;20549;50.042;8.968;2024-01-06T11:27:40;11.20;98.10
30999;DHT22;20549;50.042;8.968;2024-01-06T11:30:07;11.20;97.80
30999;DHT22;20549;50.042;8.968;2024-01-06T11:32:34;11.20;97.70
30999;DHT22;20549;50.042;8.968;2024-01-06T11:35:06;11.20;97.60
30999;DHT22;20549;50.042;8.968;2024-01-06T11:40:10;11.30;97.20
30999;DHT22;20549;50.042;8.968;2024-01-06T11:42:37;11.30;97.00
30999;DHT22;20549;50.042;8.968;2024-01-06T11:45:03;11.30;97.10
30999;DHT22;20549;50.042;8.968;2024-01-06T11:47:30;11.30;97.30
30999;DHT22;20549;50.042;8.968;2024-01-06T11:49:56;11.30;97.20
30999;DHT22;20549;50.042;8.968;2024-01-06T11:52:23;11.30;97.30
30999;DHT22;20549;50.042;8.968;2024-01-06T11:54:49;11.30;97.40
30999;DHT22;20549;50.042;8.968;2024-01-06T11:57:16;11.30;97.50
30999;DHT22;20549;50.042;8.968;2024-01-06T11:59:43;11.40;97.60
30999;DHT22;20549;50.042;8.968;2024-01-06T12:02:12;11.40;97.60
30999;DHT22;20549;50.042;8.968;2024-01-06T12:04:39;11.50;97.60
30999;DHT22;20549;50.042;8.968;2024-01-06T12:07:08;11.50;97.60
30999;DHT22;20549;50.042;8.968;2024-01-06T12:09:32;11.60;97.40
30999;DHT22;20549;50.042;8.968;2024-01-06T12:12:02;11.60;97.00
30999;DHT22;20549;50.042;8.968;2024-01-06T12:14:28;11.70;96.90
30999;DHT22;20549;50.042;8.968;2024-01-06T12:16:54;11.70;96.90
30999;DHT22;20549;50.042;8.968;2024-01-06T12:19:21;11.80;96.80
30999;DHT22;20549;50.042;8.968;2024-01-06T12:21:48;11.80;96.70
30999;DHT22;20549;50.042;8.968;2024-01-06T12:24:20;11.80;96.60
30999;DHT22;20549;50.042;8.968;2024-01-06T12:26:47;11.90;96.50
30999;DHT22;20549;50.042;8.968;2024-01-06T12:29:13;11.90;96.40
30999;DHT22;20549;50.042;8.968;2024-01-06T12:31:40;11.90;96.10
30999;DHT22;20549;50.042;8.968;2024-01-06T12:34:07;12.00;96.00
30999;DHT22;20549;50.042;8.968;2024-01-06T12:36:39;12.00;95.80
30999;DHT22;20549;50.042;8.968;2024-01-06T12:39:05;12.00;95.70
30999;DHT22;20549;50.042;8.968;2024-01-06T12:41:31;12.00;95.50
30999;DHT22;20549;50.042;8.968;2024-01-06T12:43:58;12.00;95.60
30999;DHT22;20549;50.042;8.968;2024-01-06T12:46:24;12.10;95.70
30999;DHT22;20549;50.042;8.968;2024-01-06T12:48:51;12.10;95.70
30999;DHT22;20549;50.042;8.968;2024-01-06T12:51:18;12.10;95.70
30999;DHT22;20549;50.042;8.968;2024-01-06T12:53:44;12.20;95.70
30999;DHT22;20549;50.042;8.968;2024-01-06T12:56:11;12.20;95.70
30999;DHT22;20549;50.042;8.968;2024-01-06T12:58:37;12.20;95.50
30999;DHT22;20549;50.042;8.968;2024-01-06T13:01:04;12.30;95.20
30999;DHT22;20549;50.042;8.968;2024-01-06T13:03:31;12.30;95.00
30999;DHT22;20549;50.042;8.968;2024-01-06T13:05:57;12.30;94.70
30999;DHT22;20549;50.042;8.968;2024-01-06T13:08:24;12.30;94.60
30999;DHT22;20549;50.042;8.968;2024-01-06T13:10:50;12.30;94.50
30999;DHT22;20549;50.042;8.968;2024-01-06T13:13:17;12.30;94.20
30999;DHT22;20549;50.042;8.968;2024-01-06T13:15:44;12.30;94.10
30999;DHT22;20549;50.042;8.968;2024-01-06T13:18:10;12.30;93.80
30999;DHT22;20549;50.042;8.968;2024-01-06T13:20:37;12.30;93.70
30999;DHT22;20549;50.042;8.968;2024-01-06T13:23:03;12.30;93.70
30999;DHT22;20549;50.042;8.968;2024-01-06T13:25:30;12.30;93.70
30999;DHT22;20549;50.042;8.968;2024-01-06T13:27:57;12.30;93.70
30999;DHT22;20549;50.042;8.968;2024-01-06T13:30:23;12.30;93.80
30999;DHT22;20549;50.042;8.968;2024-01-06T13:32:50;12.30;93.80
30999;DHT22;20549;50.042;8.968;2024-01-06T13:35:16;12.20;93.90
30999;DHT22;20549;50.042;8.968;2024-01-06T13:37:43;12.30;94.10
30999;DHT22;20549;50.042;8.968;2024-01-06T13:40:09;12.20;94.10
30999;DHT22;20549;50.042;8.968;2024-01-06T13:42:36;12.30;94.20
30999;DHT22;20549;50.042;8.968;2024-01-06T13:45:03;12.30;94.20
30999;DHT22;20549;50.042;8.968;2024-01-06T13:47:29;12.30;94.10
30999;DHT22;20549;50.042;8.968;2024-01-06T13:49:56;12.30;94.10
30999;DHT22;20549;50.042;8.968;2024-01-06T13:52:22;12.40;94.00
30999;DHT22;20549;50.042;8.968;2024-01-06T13:54:49;12.40;93.80
30999;DHT22;20549;50.042;8.968;2024-01-06T13:57:16;12.40;93.70
30999;DHT22;20549;50.042;8.968;2024-01-06T13:59:42;12.40;93.40
30999;DHT22;20549;50.042;8.968;2024-01-06T14:02:09;12.40;93.30
30999;DHT22;20549;50.042;8.968;2024-01-06T14:04:35;12.40;93.20
30999;DHT22;20549;50.042;8.968;2024-01-06T14:07:02;12.40;93.20
30999;DHT22;20549;50.042;8.968;2024-01-06T14:09:29;12.40;93.00
30999;DHT22;20549;50.042;8.968;2024-01-06T14:11:55;12.40;92.90
30999;DHT22;20549;50.042;8.968;2024-01-06T14:14:22;12.30;92.80
30999;DHT22;20549;50.042;8.968;2024-01-06T14:16:48;12.30;92.70
30999;DHT22;20549;50.042;8.968;2024-01-06T14:19:15;12.30;92.70
30999;DHT22;20549;50.042;8.968;2024-01-06T14:21:41;12.30;92.70
30999;DHT22;20549;50.042;8.968;2024-01-06T14:24:08;12.30;92.80
30999;DHT22;20549;50.042;8.968;2024-01-06T14:26:35;12.20;92.70
30999;DHT22;20549;50.042;8.968;2024-01-06T14:29:02;12.20;93.00
30999;DHT22;20549;50.042;8.968;2024-01-06T14:31:28;12.10;92.50
30999;DHT22;20549;50.042;8.968;2024-01-06T14:33:54;12.10;92.40
30999;DHT22;20549;50.042;8.968;2024-01-06T14:36:21;12.10;92.70
30999;DHT22;20549;50.042;8.968;2024-01-06T14:38:48;12.00;92.40
30999;DHT22;20549;50.042;8.968;2024-01-06T14:41:14;12.00;92.40
30999;DHT22;20549;50.042;8.968;2024-01-06T14:43:41;11.90;92.40
30999;DHT22;20549;50.042;8.968;2024-01-06T14:46:07;11.90;92.50
30999;DHT22;20549;50.042;8.968;2024-01-06T14:48:34;11.90;92.50
30999;DHT22;20549;50.042;8.968;2024-01-06T14:51:01;11.80;92.60
30999;DHT22;20549;50.042;8.968;2024-01-06T14:53:27;11.80;92.60
30999;DHT22;20549;50.042;8.968;2024-01-06T14:55:54;11.70;92.70
30999;DHT22;20549;50.042;8.968;2024-01-06T14:58:20;11.70;92.70
30999;DHT22;20549;50.042;8.968;2024-01-06T15:00:47;11.60;93.10
30999;DHT22;20549;50.042;8.968;2024-01-06T15:03:13;11.60;92.80
30999;DHT22;20549;50.042;8.968;2024-01-06T15:05:40;11.60;92.80
30999;DHT22;20549;50.042;8.968;2024-01-06T15:08:07;11.50;92.80
30999;DHT22;20549;50.042;8.968;2024-01-06T15:10:33;11.50;92.90
30999;DHT22;20549;50.042;8.968;2024-01-06T15:13:00;11.40;92.90
30999;DHT22;20549;50.042;8.968;2024-01-06T15:15:26;11.40;93.00
30999;DHT22;20549;50.042;8.968;2024-01-06T15:17:53;11.30;93.00
30999;DHT22;20549;50.042;8.968;2024-01-06T15:20:20;11.30;93.10
30999;DHT22;20549;50.042;8.968;2024-01-06T15:22:46;11.30;93.20
30999;DHT22;20549;50.042;8.968;2024-01-06T15:25:13;11.20;93.30
30999;DHT22;20549;50.042;8.968;2024-01-06T15:27:39;11.20;93.10
30999;DHT22;20549;50.042;8.968;2024-01-06T15:30:06;11.20;93.50
30999;DHT22;20549;50.042;8.968;2024-01-06T15:32:33;11.20;93.60
30999;DHT22;20549;50.042;8.968;2024-01-06T15:34:59;11.10;93.60
30999;DHT22;20549;50.042;8.968;2024-01-06T15:37:26;11.10;93.70
30999;DHT22;20549;50.042;8.968;2024-01-06T15:39:52;11.10;93.80
30999;DHT22;20549;50.042;8.968;2024-01-06T15:42:19;11.10;93.80
30999;DHT22;20549;50.042;8.968;2024-01-06T15:44:45;11.10;94.00
30999;DHT22;20549;50.042;8.968;2024-01-06T15:47:12;11.00;93.90
30999;DHT22;20549;50.042;8.968;2024-01-06T15:49:39;11.00;94.00
30999;DHT22;20549;50.042;8.968;2024-01-06T15:52:05;11.00;94.10
30999;DHT22;20549;50.042;8.968;2024-01-06T15:54:32;11.00;94.20
30999;DHT22;20549;50.042;8.968;2024-01-06T15:56:58;10.90;94.30
30999;DHT22;20549;50.042;8.968;2024-01-06T15:59:25;10.90;94.30
30999;DHT22;20549;50.042;8.968;2024-01-06T16:01:52;10.90;94.50